createdAt,value
2018-02-27T00:00:48.855Z,0.00
2018-02-27T00:01:48.885Z,0.00
2018-02-27T00:02:48.922Z,0.00
2018-02-27T00:03:48.950Z,0.00
2018-02-27T00:04:49.000Z,0.00
2018-02-27T00:05:49.018Z,0.00
2018-02-27T00:06:49.047Z,0.00
2018-02-27T00:07:49.079Z,0.00
2018-02-27T00:08:49.111Z,0.00
2018-02-27T00:09:49.164Z,0.00
2018-02-27T00:10:49.177Z,0.00
2018-02-27T00:11:49.207Z,0.00
2018-02-27T00:12:49.242Z,0.00
2018-02-27T00:13:49.274Z,0.00
2018-02-27T00:14:49.323Z,0.00
2018-02-27T00:15:49.337Z,0.00
2018-02-27T00:16:49.370Z,0.00
2018-02-27T00:17:49.402Z,0.00
2018-02-27T00:18:49.452Z,0.00
2018-02-27T00:19:49.468Z,0.00
2018-02-27T00:20:49.515Z,0.00
2018-02-27T00:21:49.533Z,0.00
2018-02-27T00:22:49.564Z,0.00
2018-02-27T00:23:49.596Z,0.00
2018-02-27T00:24:49.629Z,0.00
2018-02-27T00:25:49.679Z,0.00
2018-02-27T00:26:49.693Z,0.00
2018-02-27T00:27:49.724Z,0.00
2018-02-27T00:28:49.757Z,0.00
2018-02-27T00:29:49.797Z,0.00
2018-02-27T00:30:49.847Z,0.00
2018-02-27T00:31:49.856Z,0.00
2018-02-27T00:32:49.890Z,0.00
2018-02-27T00:33:49.920Z,0.00
2018-02-27T00:34:49.956Z,0.00
2018-02-27T00:35:50.002Z,0.00
2018-02-27T00:36:50.016Z,0.00
2018-02-27T00:37:50.048Z,0.00
2018-02-27T00:38:50.086Z,0.00
2018-02-27T00:39:50.116Z,0.00
2018-02-27T00:40:50.164Z,0.00
2018-02-27T00:41:50.179Z,0.00
2018-02-27T00:42:50.209Z,0.00
2018-02-27T00:43:50.243Z,0.00
2018-02-27T00:44:50.275Z,0.00
2018-02-27T00:45:50.325Z,0.00
2018-02-27T00:46:50.344Z,0.00
2018-02-27T00:47:50.371Z,0.00
2018-02-27T00:48:50.455Z,0.00
2018-02-27T00:49:50.437Z,0.00
2018-02-27T00:50:50.487Z,0.00
2018-02-27T00:51:50.519Z,0.00
2018-02-27T00:52:50.532Z,0.00
2018-02-27T00:53:50.565Z,0.00
2018-02-27T00:54:50.600Z,0.00
2018-02-27T00:55:50.632Z,0.00
2018-02-27T00:56:50.680Z,0.00
2018-02-27T00:57:50.696Z,0.00
2018-02-27T00:58:50.730Z,0.00
2018-02-27T00:59:50.762Z,0.00
2018-02-27T01:00:50.792Z,0.00
2018-02-27T01:01:50.840Z,0.00
2018-02-27T01:02:50.856Z,0.00
2018-02-27T01:03:50.911Z,0.00
2018-02-27T01:04:50.920Z,0.00
2018-02-27T01:05:50.952Z,0.00
2018-02-27T01:06:50.984Z,0.00
2018-02-27T01:07:51.038Z,0.00
2018-02-27T01:08:51.051Z,0.00
2018-02-27T01:09:51.080Z,0.00
2018-02-27T01:10:51.116Z,0.00
2018-02-27T01:11:51.144Z,0.00
2018-02-27T01:12:51.192Z,0.00
2018-02-27T01:13:51.226Z,0.00
2018-02-27T01:14:51.243Z,0.00
2018-02-27T01:15:51.275Z,0.00
2018-02-27T01:16:51.316Z,0.00
2018-02-27T01:17:51.340Z,0.00
2018-02-27T01:18:51.392Z,0.00
2018-02-27T01:19:51.406Z,0.00
2018-02-27T01:20:51.434Z,0.00
2018-02-27T01:21:51.471Z,0.00
2018-02-27T01:22:51.501Z,0.00
2018-02-27T01:23:51.546Z,0.00
2018-02-27T01:24:52.300Z,0.00
2018-02-27T01:25:51.597Z,0.00
2018-02-27T01:26:51.629Z,0.00
2018-02-27T01:27:51.662Z,0.00
2018-02-27T01:28:51.710Z,0.00
2018-02-27T01:29:51.730Z,0.00
2018-02-27T01:30:51.756Z,0.00
2018-02-27T01:31:51.789Z,0.00
2018-02-27T01:32:51.821Z,0.00
2018-02-27T01:33:51.868Z,0.00
2018-02-27T01:34:51.907Z,0.00
2018-02-27T01:35:51.924Z,0.00
2018-02-27T01:36:51.949Z,0.00
2018-02-27T01:37:51.981Z,0.00
2018-02-27T01:38:52.017Z,0.00
2018-02-27T01:39:52.068Z,0.00
2018-02-27T01:40:52.078Z,0.00
2018-02-27T01:41:52.132Z,0.00
2018-02-27T01:42:52.144Z,0.00
2018-02-27T01:43:52.175Z,0.00
2018-02-27T01:44:52.228Z,0.00
2018-02-27T01:45:52.239Z,0.00
2018-02-27T01:46:52.273Z,0.00
2018-02-27T01:47:52.306Z,0.00
2018-02-27T01:48:52.335Z,0.00
2018-02-27T01:49:52.384Z,0.00
2018-02-27T01:50:52.400Z,0.00
2018-02-27T01:51:52.433Z,0.00
2018-02-27T01:52:52.464Z,0.00
2018-02-27T01:53:52.499Z,0.00
2018-02-27T01:54:52.547Z,0.00
2018-02-27T01:55:52.577Z,0.00
2018-02-27T01:56:52.594Z,0.00
2018-02-27T01:57:52.626Z,0.00
2018-02-27T01:58:52.656Z,0.00
2018-02-27T01:59:52.689Z,0.00
2018-02-27T02:00:52.744Z,0.00
2018-02-27T02:01:52.755Z,0.00
2018-02-27T02:02:52.784Z,0.00
2018-02-27T02:03:52.818Z,0.00
2018-02-27T02:04:52.849Z,0.00
2018-02-27T02:05:52.906Z,0.00
2018-02-27T02:06:52.914Z,0.00
2018-02-27T02:07:52.946Z,0.00
2018-02-27T02:08:52.978Z,0.00
2018-02-27T02:09:53.010Z,0.00
2018-02-27T02:10:53.060Z,0.00
2018-02-27T02:11:53.092Z,0.00
2018-02-27T02:12:53.106Z,0.00
2018-02-27T02:13:53.138Z,0.00
2018-02-27T02:14:53.170Z,0.00
2018-02-27T02:15:53.202Z,0.00
2018-02-27T02:16:53.252Z,0.00
2018-02-27T02:17:53.266Z,0.00
2018-02-27T02:18:53.298Z,0.00
2018-02-27T02:19:53.328Z,0.00
2018-02-27T02:20:53.367Z,0.00
2018-02-27T02:21:53.417Z,0.00
2018-02-27T02:22:53.446Z,0.00
2018-02-27T02:23:53.455Z,0.00
2018-02-27T02:24:53.488Z,0.00
2018-02-27T02:25:53.522Z,0.00
2018-02-27T02:26:53.554Z,0.00
2018-02-27T02:27:53.599Z,0.00
2018-02-27T02:28:53.616Z,0.00
2018-02-27T02:29:53.653Z,0.00
2018-02-27T02:30:53.682Z,0.00
2018-02-27T02:31:53.713Z,0.00
2018-02-27T02:32:53.759Z,0.00
2018-02-27T02:33:53.785Z,0.00
2018-02-27T02:34:53.815Z,0.00
2018-02-27T02:35:53.840Z,0.00
2018-02-27T02:36:53.872Z,0.00
2018-02-27T02:37:53.921Z,0.00
2018-02-27T02:38:53.937Z,0.00
2018-02-27T02:39:53.976Z,0.00
2018-02-27T02:40:53.999Z,0.00
2018-02-27T02:41:54.032Z,0.00
2018-02-27T02:42:54.084Z,0.00
2018-02-27T02:43:54.096Z,0.00
2018-02-27T02:44:54.129Z,0.00
2018-02-27T02:45:54.159Z,0.00
2018-02-27T02:46:54.192Z,0.00
2018-02-27T02:47:54.241Z,0.00
2018-02-27T02:48:54.254Z,0.00
2018-02-27T02:49:54.288Z,0.00
2018-02-27T02:50:54.318Z,0.00
2018-02-27T02:51:54.352Z,0.00
2018-02-27T02:52:54.398Z,0.00
2018-02-27T02:53:54.414Z,0.00
2018-02-27T02:54:54.446Z,0.00
2018-02-27T02:55:54.478Z,0.00
2018-02-27T02:56:54.509Z,0.00
2018-02-27T02:57:54.561Z,0.00
2018-02-27T02:58:54.580Z,0.00
2018-02-27T02:59:54.622Z,0.00
2018-02-27T03:00:54.637Z,0.00
2018-02-27T03:01:54.670Z,0.00
2018-02-27T03:02:54.701Z,0.00
2018-02-27T03:03:54.749Z,0.00
2018-02-27T03:04:54.766Z,0.00
2018-02-27T03:05:54.810Z,0.00
2018-02-27T03:06:54.827Z,0.00
2018-02-27T03:07:54.863Z,0.00
2018-02-27T03:08:54.891Z,0.00
2018-02-27T03:09:54.927Z,0.00
2018-02-27T03:10:54.974Z,0.00
2018-02-27T03:11:54.987Z,0.00
2018-02-27T03:12:55.019Z,0.00
2018-02-27T03:13:55.051Z,0.00
2018-02-27T03:14:55.083Z,0.00
2018-02-27T03:15:55.136Z,0.00
2018-02-27T03:16:55.144Z,0.00
2018-02-27T03:17:55.176Z,0.00
2018-02-27T03:18:55.208Z,0.00
2018-02-27T03:19:55.242Z,0.00
2018-02-27T03:20:55.288Z,0.00
2018-02-27T03:21:55.294Z,0.00
2018-02-27T03:22:55.327Z,0.00
2018-02-27T03:23:55.363Z,0.00
2018-02-27T03:24:55.388Z,0.00
2018-02-27T03:25:55.437Z,0.00
2018-02-27T03:26:55.454Z,0.00
2018-02-27T03:27:55.486Z,0.00
2018-02-27T03:28:55.516Z,0.00
2018-02-27T03:29:55.550Z,0.00
2018-02-27T03:30:55.645Z,0.00
2018-02-27T03:31:55.611Z,0.00
2018-02-27T03:32:55.651Z,0.00
2018-02-27T03:33:55.674Z,0.00
2018-02-27T03:34:55.708Z,0.00
2018-02-27T03:35:55.769Z,0.00
2018-02-27T03:36:55.773Z,0.00
2018-02-27T03:37:55.818Z,0.00
2018-02-27T03:38:55.834Z,0.00
2018-02-27T03:39:55.864Z,0.00
2018-02-27T03:40:55.895Z,0.00
2018-02-27T03:41:55.929Z,0.00
2018-02-27T03:42:55.975Z,0.00
2018-02-27T03:43:55.996Z,0.00
2018-02-27T03:44:56.025Z,0.00
2018-02-27T03:45:56.059Z,0.00
2018-02-27T03:46:56.104Z,0.00
2018-02-27T03:47:56.138Z,0.00
2018-02-27T03:48:56.149Z,0.00
2018-02-27T03:49:56.182Z,0.00
2018-02-27T03:50:56.221Z,0.00
2018-02-27T03:51:56.253Z,0.00
2018-02-27T03:52:56.301Z,0.00
2018-02-27T03:53:56.318Z,0.00
2018-02-27T03:54:56.352Z,0.00
2018-02-27T03:55:56.381Z,0.00
2018-02-27T03:56:56.432Z,0.00
2018-02-27T03:57:56.444Z,0.00
2018-02-27T03:58:56.491Z,0.00
2018-02-27T03:59:56.507Z,0.00
2018-02-27T04:00:56.542Z,0.00
2018-02-27T04:01:56.621Z,0.00
2018-02-27T04:02:56.603Z,0.00
2018-02-27T04:03:56.667Z,0.00
2018-02-27T04:04:56.667Z,0.00
2018-02-27T04:05:56.701Z,0.00
2018-02-27T04:06:56.731Z,0.00
2018-02-27T04:07:56.763Z,0.00
2018-02-27T04:08:56.820Z,0.00
2018-02-27T04:09:56.832Z,0.00
2018-02-27T04:10:56.859Z,0.00
2018-02-27T04:11:56.891Z,0.00
2018-02-27T04:12:56.923Z,0.00
2018-02-27T04:13:56.977Z,0.00
2018-02-27T04:14:56.986Z,0.00
2018-02-27T04:15:57.021Z,0.00
2018-02-27T04:16:57.050Z,0.00
2018-02-27T04:17:57.083Z,0.00
2018-02-27T04:18:57.132Z,0.00
2018-02-27T04:19:57.148Z,0.00
2018-02-27T04:20:57.179Z,0.00
2018-02-27T04:21:57.210Z,0.00
2018-02-27T04:22:57.243Z,0.00
2018-02-27T04:23:57.288Z,0.00
2018-02-27T04:24:57.321Z,0.00
2018-02-27T04:25:57.341Z,0.00
2018-02-27T04:26:57.371Z,0.00
2018-02-27T04:27:57.401Z,0.00
2018-02-27T04:28:57.432Z,0.00
2018-02-27T04:29:57.490Z,0.00
2018-02-27T04:30:57.496Z,0.00
2018-02-27T04:31:57.530Z,0.00
2018-02-27T04:32:57.566Z,0.00
2018-02-27T04:33:57.594Z,0.00
2018-02-27T04:34:57.641Z,0.00
2018-02-27T04:35:57.656Z,0.00
2018-02-27T04:36:57.689Z,0.00
2018-02-27T04:37:57.728Z,0.00
2018-02-27T04:38:57.758Z,0.00
2018-02-27T04:39:57.799Z,0.00
2018-02-27T04:40:57.831Z,0.00
2018-02-27T04:41:57.849Z,0.00
2018-02-27T04:42:57.878Z,0.00
2018-02-27T04:43:57.911Z,0.00
2018-02-27T04:44:57.945Z,0.00
2018-02-27T04:45:58.000Z,0.00
2018-02-27T04:46:58.007Z,0.00
2018-02-27T04:47:58.041Z,0.00
2018-02-27T04:48:58.071Z,0.00
2018-02-27T04:49:58.108Z,0.00
2018-02-27T04:50:58.151Z,0.00
2018-02-27T04:51:58.190Z,0.00
2018-02-27T04:52:58.199Z,0.00
2018-02-27T04:53:58.230Z,0.00
2018-02-27T04:54:58.259Z,0.00
2018-02-27T04:55:58.291Z,0.00
2018-02-27T04:56:58.344Z,0.00
2018-02-27T04:57:58.356Z,0.00
2018-02-27T04:58:58.387Z,0.00
2018-02-27T04:59:58.423Z,0.00
2018-02-27T05:00:58.449Z,0.00
2018-02-27T05:01:58.503Z,0.00
2018-02-27T05:02:58.513Z,0.00
2018-02-27T05:03:58.546Z,0.00
2018-02-27T05:04:58.579Z,0.00
2018-02-27T05:05:58.608Z,0.00
2018-02-27T05:06:58.658Z,0.00
2018-02-27T05:07:58.670Z,0.00
2018-02-27T05:08:59.240Z,0.00
2018-02-27T05:09:58.754Z,0.00
2018-02-27T05:10:58.767Z,0.00
2018-02-27T05:11:58.798Z,0.00
2018-02-27T05:12:58.828Z,0.00
2018-02-27T05:13:58.864Z,0.00
2018-02-27T05:14:58.910Z,0.00
2018-02-27T05:15:58.923Z,0.00
2018-02-27T05:16:58.955Z,0.00
2018-02-27T05:17:58.987Z,0.00
2018-02-27T05:18:59.024Z,0.00
2018-02-27T05:19:59.069Z,0.00
2018-02-27T05:20:59.085Z,0.00
2018-02-27T05:21:59.114Z,0.00
2018-02-27T05:22:59.169Z,0.00
2018-02-27T05:23:59.174Z,0.00
2018-02-27T05:24:59.206Z,0.00
2018-02-27T05:25:59.238Z,0.00
2018-02-27T05:26:59.270Z,0.00
2018-02-27T05:27:59.320Z,0.00
2018-02-27T05:28:59.333Z,0.00
2018-02-27T05:29:59.368Z,0.00
2018-02-27T05:30:59.419Z,0.00
2018-02-27T05:31:59.428Z,0.00
2018-02-27T05:32:59.458Z,0.00
2018-02-27T05:33:59.509Z,0.00
2018-02-27T05:34:59.522Z,0.00
2018-02-27T05:35:59.553Z,0.00
2018-02-27T05:36:59.584Z,4.00
2018-02-27T05:37:59.621Z,4.00
2018-02-27T05:38:59.663Z,0.00
2018-02-27T05:39:59.678Z,4.00
2018-02-27T05:40:59.726Z,4.00
2018-02-27T05:41:59.748Z,4.00
2018-02-27T05:42:59.775Z,4.00
2018-02-27T05:43:59.802Z,8.00
2018-02-27T05:44:59.836Z,12.00
2018-02-27T05:45:59.886Z,12.00
2018-02-27T05:46:59.900Z,12.00
2018-02-27T05:47:59.935Z,16.00
2018-02-27T05:48:59.963Z,20.00
2018-02-27T05:50:00.012Z,24.00
2018-02-27T05:51:00.027Z,28.00
2018-02-27T05:52:00.057Z,36.00
2018-02-27T05:53:00.088Z,40.00
2018-02-27T05:54:00.118Z,48.00
2018-02-27T05:55:00.167Z,56.00
2018-02-27T05:56:00.183Z,64.00
2018-02-27T05:57:00.212Z,72.00
2018-02-27T05:58:00.245Z,88.00
2018-02-27T05:59:00.295Z,100.00
2018-02-27T06:00:00.311Z,112.00
2018-02-27T06:01:00.340Z,128.00
2018-02-27T06:02:00.372Z,148.00
2018-02-27T06:03:00.403Z,164.00
2018-02-27T06:04:00.462Z,184.00
2018-02-27T06:05:00.465Z,208.00
2018-02-27T06:06:00.499Z,228.00
2018-02-27T06:07:00.528Z,252.00
2018-02-27T06:08:00.559Z,280.00
2018-02-27T06:09:00.610Z,304.00
2018-02-27T06:10:00.621Z,332.00
2018-02-27T06:11:00.676Z,364.00
2018-02-27T06:12:00.686Z,396.00
2018-02-27T06:13:00.716Z,436.00
2018-02-27T06:14:00.748Z,472.00
2018-02-27T06:15:00.794Z,516.00
2018-02-27T06:16:00.828Z,560.00
2018-02-27T06:17:00.842Z,608.00
2018-02-27T06:18:00.875Z,656.00
2018-02-27T06:19:00.906Z,712.00
2018-02-27T06:20:00.937Z,768.00
2018-02-27T06:21:00.986Z,832.00
2018-02-27T06:22:01.000Z,896.00
2018-02-27T06:23:01.030Z,964.00
2018-02-27T06:24:01.073Z,1032.00
2018-02-27T06:25:01.095Z,1108.00
2018-02-27T06:26:01.142Z,1192.00
2018-02-27T06:27:01.159Z,1276.00
2018-02-27T06:28:01.190Z,1368.00
2018-02-27T06:29:01.221Z,1468.00
2018-02-27T06:30:01.253Z,1564.00
2018-02-27T06:31:01.300Z,1660.00
2018-02-27T06:32:01.316Z,1764.00
2018-02-27T06:33:01.346Z,1868.00
2018-02-27T06:34:01.396Z,1984.00
2018-02-27T06:35:01.408Z,2108.00
2018-02-27T06:36:01.488Z,2232.00
2018-02-27T06:37:01.477Z,2368.00
2018-02-27T06:38:01.522Z,2504.00
2018-02-27T06:39:01.536Z,2640.00
2018-02-27T06:40:01.568Z,2768.00
2018-02-27T06:41:01.616Z,2900.00
2018-02-27T06:42:01.633Z,3028.00
2018-02-27T06:43:01.663Z,3160.00
2018-02-27T06:44:01.693Z,3272.00
2018-02-27T06:45:01.729Z,3392.00
2018-02-27T06:46:01.780Z,3504.00
2018-02-27T06:47:01.788Z,3612.00
2018-02-27T06:48:01.823Z,3708.00
2018-02-27T06:49:01.852Z,3808.00
2018-02-27T06:50:01.887Z,3892.00
2018-02-27T06:51:01.933Z,3992.00
2018-02-27T06:52:01.955Z,4092.00
2018-02-27T06:53:01.980Z,4196.00
2018-02-27T06:54:02.015Z,4312.00
2018-02-27T06:55:02.045Z,4444.00
2018-02-27T06:56:02.101Z,4572.00
2018-02-27T06:57:02.106Z,4720.00
2018-02-27T06:58:29.710Z,4892.00
2018-02-27T06:59:02.173Z,5072.00
2018-02-27T07:00:02.202Z,5260.00
2018-02-27T07:01:02.251Z,5456.00
2018-02-27T07:02:02.273Z,5640.00
2018-02-27T07:03:02.297Z,5840.00
2018-02-27T07:04:02.331Z,6056.00
2018-02-27T07:06:39.159Z,6860.00
2018-02-27T07:07:39.181Z,7132.00
2018-02-27T07:08:39.196Z,7224.00
2018-02-27T07:09:39.228Z,7376.00
2018-02-27T07:10:39.279Z,7592.00
2018-02-27T07:11:39.294Z,7828.00
2018-02-27T07:12:39.324Z,8064.00
2018-02-27T07:13:39.355Z,8380.00
2018-02-27T07:14:39.390Z,8680.00
2018-02-27T07:15:39.441Z,8864.00
2018-02-27T07:16:39.452Z,9080.00
2018-02-27T07:17:39.498Z,9220.00
2018-02-27T07:18:39.520Z,9320.00
2018-02-27T07:19:39.550Z,9608.00
2018-02-27T07:20:39.583Z,9968.00
2018-02-27T07:21:39.632Z,10160.00
2018-02-27T07:22:39.646Z,10676.00
2018-02-27T07:23:39.683Z,11544.00
2018-02-27T07:24:39.728Z,12076.00
2018-02-27T07:25:39.744Z,11744.00
2018-02-27T07:26:39.775Z,11740.00
2018-02-27T07:27:39.829Z,12588.00
2018-02-27T07:28:39.841Z,12408.00
2018-02-27T07:29:39.889Z,12264.00
2018-02-27T07:30:39.908Z,12272.00
2018-02-27T07:31:39.940Z,12444.00
2018-02-27T07:32:39.996Z,12576.00
2018-02-27T07:33:40.004Z,12888.00
2018-02-27T07:34:40.058Z,13176.00
2018-02-27T07:35:40.071Z,13328.00
2018-02-27T07:36:40.105Z,14288.00
2018-02-27T07:37:40.159Z,14536.00
2018-02-27T07:38:40.169Z,17024.00
2018-02-27T07:39:40.198Z,19040.00
2018-02-27T07:40:40.239Z,17952.00
2018-02-27T07:41:40.265Z,16224.00
2018-02-27T07:42:40.332Z,17184.00
2018-02-27T07:43:40.335Z,18624.00
2018-02-27T07:44:40.368Z,17696.00
2018-02-27T07:45:40.408Z,16672.00
2018-02-27T07:46:40.434Z,18272.00
2018-02-27T07:47:40.490Z,18400.00
2018-02-27T07:48:40.503Z,17472.00
2018-02-27T07:49:40.537Z,16640.00
2018-02-27T07:50:40.568Z,16512.00
2018-02-27T07:51:40.603Z,17536.00
2018-02-27T07:52:40.654Z,17088.00
2018-02-27T07:53:40.674Z,16256.00
2018-02-27T07:54:40.705Z,16704.00
2018-02-27T07:55:40.742Z,17216.00
2018-02-27T07:56:40.774Z,17792.00
2018-02-27T07:57:40.829Z,18336.00
2018-02-27T07:58:40.843Z,18816.00
2018-02-27T07:59:40.880Z,20000.00
2018-02-27T08:00:40.910Z,21056.00
2018-02-27T08:01:40.947Z,23008.00
2018-02-27T08:02:41.003Z,23232.00
2018-02-27T08:03:41.014Z,22432.00
2018-02-27T08:04:41.050Z,21152.00
2018-02-27T08:05:41.084Z,19552.00
2018-02-27T08:06:41.122Z,20480.00
2018-02-27T08:07:41.173Z,22880.00
2018-02-27T08:08:41.188Z,25376.00
2018-02-27T08:09:41.228Z,26176.00
2018-02-27T08:10:41.266Z,22336.00
2018-02-27T08:11:41.304Z,23264.00
2018-02-27T08:12:41.349Z,29312.00
2018-02-27T08:13:41.369Z,32608.00
2018-02-27T08:14:41.402Z,30528.00
2018-02-27T08:15:41.435Z,29440.00
2018-02-27T08:16:41.474Z,29760.00
2018-02-27T08:17:41.525Z,31264.00
2018-02-27T08:18:41.544Z,31168.00
2018-02-27T08:19:41.580Z,30048.00
2018-02-27T08:20:41.612Z,30400.00
2018-02-27T08:21:41.652Z,30752.00
2018-02-27T08:22:41.711Z,29216.00
2018-02-27T08:23:41.724Z,28192.00
2018-02-27T08:24:41.761Z,27392.00
2018-02-27T08:25:41.803Z,25792.00
2018-02-27T08:26:41.838Z,23968.00
2018-02-27T08:27:41.884Z,23072.00
2018-02-27T08:28:41.907Z,23328.00
2018-02-27T08:29:41.941Z,24896.00
2018-02-27T08:30:41.980Z,25920.00
2018-02-27T08:31:42.014Z,25792.00
2018-02-27T08:32:42.065Z,25856.00
2018-02-27T08:33:42.083Z,26336.00
2018-02-27T08:34:42.141Z,27168.00
2018-02-27T08:35:42.166Z,27968.00
2018-02-27T08:36:42.194Z,27200.00
2018-02-27T08:37:42.274Z,26176.00
2018-02-27T08:38:42.296Z,26752.00
2018-02-27T08:39:42.305Z,28768.00
2018-02-27T08:40:42.352Z,29856.00
2018-02-27T08:41:42.376Z,29472.00
2018-02-27T08:42:42.410Z,29536.00
2018-02-27T08:43:42.448Z,30368.00
2018-02-27T08:44:42.482Z,33088.00
2018-02-27T08:45:42.604Z,34592.00
2018-02-27T08:46:42.555Z,35264.00
2018-02-27T08:47:42.590Z,35456.00
2018-02-27T08:48:42.647Z,35040.00
2018-02-27T08:49:42.662Z,34688.00
2018-02-27T08:50:42.714Z,33696.00
2018-02-27T08:51:42.739Z,31552.00
2018-02-27T08:52:42.773Z,31136.00
2018-02-27T08:53:42.829Z,30016.00
2018-02-27T08:54:42.849Z,30912.00
2018-02-27T08:55:42.899Z,32160.00
2018-02-27T08:56:42.916Z,32576.00
2018-02-27T08:57:42.955Z,32096.00
2018-02-27T08:58:42.991Z,33280.00
2018-02-27T08:59:43.026Z,36384.00
2018-02-27T09:00:43.084Z,36832.00
2018-02-27T09:01:43.102Z,40128.00
2018-02-27T09:02:43.137Z,38496.00
2018-02-27T09:03:43.177Z,37760.00
2018-02-27T09:04:43.217Z,36512.00
2018-02-27T09:05:43.266Z,35584.00
2018-02-27T09:06:43.289Z,35296.00
2018-02-27T09:07:43.325Z,35328.00
2018-02-27T09:08:43.362Z,39904.00
2018-02-27T09:09:43.398Z,44288.00
2018-02-27T09:10:43.452Z,48864.00
2018-02-27T09:11:43.474Z,48608.00
2018-02-27T09:12:43.509Z,38528.00
2018-02-27T09:13:43.555Z,39776.00
2018-02-27T09:14:43.596Z,40736.00
2018-02-27T09:15:43.640Z,40384.00
2018-02-27T09:16:43.662Z,49760.00
2018-02-27T09:17:43.702Z,49728.00
2018-02-27T09:18:43.738Z,49920.00
2018-02-27T09:19:43.775Z,52608.00
2018-02-27T09:20:43.834Z,53952.00
2018-02-27T09:21:43.849Z,49728.00
2018-02-27T09:22:43.888Z,48800.00
2018-02-27T09:23:43.928Z,43808.00
2018-02-27T09:24:43.968Z,41216.00
2018-02-27T09:25:44.025Z,40096.00
2018-02-27T09:26:44.047Z,40864.00
2018-02-27T09:27:44.086Z,43168.00
2018-02-27T09:28:44.121Z,34880.00
2018-02-27T09:29:44.170Z,52608.00
2018-02-27T09:30:44.220Z,47872.00
2018-02-27T09:31:44.257Z,24640.00
2018-02-27T09:32:44.278Z,21632.00
2018-02-27T09:33:44.323Z,27552.00
2018-02-27T09:34:44.357Z,39872.00
2018-02-27T09:35:44.395Z,39840.00
2018-02-27T09:36:44.451Z,26880.00
2018-02-27T09:37:44.471Z,29728.00
2018-02-27T09:38:44.568Z,52512.00
2018-02-27T09:39:44.549Z,53664.00
2018-02-27T09:40:44.586Z,52832.00
2018-02-27T09:41:44.645Z,51456.00
2018-02-27T09:42:44.664Z,53952.00
2018-02-27T09:43:44.705Z,49920.00
2018-02-27T09:44:44.750Z,43168.00
2018-02-27T09:45:44.780Z,46912.00
2018-02-27T09:46:44.835Z,38688.00
2018-02-27T09:47:44.858Z,33504.00
2018-02-27T09:48:44.896Z,57792.00
2018-02-27T09:49:44.935Z,60096.00
2018-02-27T09:50:44.973Z,60992.00
2018-02-27T09:51:45.032Z,58272.00
2018-02-27T09:52:45.073Z,63008.00
2018-02-27T09:53:45.090Z,58752.00
2018-02-27T09:54:45.131Z,60928.00
2018-02-27T09:55:45.169Z,61728.00
2018-02-27T09:56:45.229Z,62432.00
2018-02-27T09:57:45.248Z,63040.00
2018-02-27T09:58:45.312Z,65472.00
2018-02-27T09:59:45.326Z,68864.00
2018-02-27T10:00:45.366Z,65728.00
2018-02-27T10:01:45.420Z,66592.00
2018-02-27T10:02:45.447Z,61504.00
2018-02-27T10:03:45.486Z,56256.00
2018-02-27T10:04:45.528Z,56928.00
2018-02-27T10:05:45.569Z,55232.00
2018-02-27T10:06:45.629Z,54624.00
2018-02-27T10:07:45.675Z,55936.00
2018-02-27T10:08:45.692Z,58304.00
2018-02-27T10:09:45.731Z,60416.00
2018-02-27T10:10:45.775Z,60032.00
2018-02-27T10:11:45.814Z,65248.00
2018-02-27T10:12:45.872Z,67808.00
2018-02-27T10:13:45.898Z,68352.00
2018-02-27T10:14:45.938Z,69760.00
2018-02-27T10:15:45.980Z,66976.00
2018-02-27T10:16:46.022Z,63520.00
2018-02-27T10:17:46.080Z,63744.00
2018-02-27T10:18:46.116Z,64992.00
2018-02-27T10:19:46.146Z,66560.00
2018-02-27T10:20:46.186Z,64352.00
2018-02-27T10:21:46.230Z,64128.00
2018-02-27T10:22:46.291Z,61280.00
2018-02-27T10:23:46.314Z,64416.00
2018-02-27T10:24:46.357Z,67904.00
2018-02-27T10:25:46.401Z,74176.00
2018-02-27T10:26:46.437Z,78464.00
2018-02-27T10:27:46.514Z,75616.00
2018-02-27T10:28:46.525Z,75648.00
2018-02-27T10:29:46.564Z,77504.00
2018-02-27T10:30:46.614Z,74432.00
2018-02-27T10:31:46.650Z,70176.00
2018-02-27T10:32:46.708Z,68096.00
2018-02-27T10:33:46.734Z,65664.00
2018-02-27T10:34:46.778Z,62368.00
2018-02-27T10:35:46.823Z,61728.00
2018-02-27T10:36:46.857Z,62048.00
2018-02-27T10:37:46.920Z,60672.00
2018-02-27T10:38:46.941Z,59360.00
2018-02-27T10:39:47.008Z,38528.00
2018-02-27T10:40:47.028Z,35488.00
2018-02-27T10:41:47.069Z,44768.00
2018-02-27T10:42:47.114Z,69056.00
2018-02-27T10:43:47.159Z,48192.00
2018-02-27T10:44:47.212Z,63520.00
2018-02-27T10:45:47.240Z,61248.00
2018-02-27T10:46:47.290Z,56960.00
2018-02-27T10:47:47.324Z,58336.00
2018-02-27T10:48:47.371Z,61920.00
2018-02-27T10:49:47.425Z,58336.00
2018-02-27T10:50:47.450Z,59808.00
2018-02-27T10:51:47.491Z,60256.00
2018-02-27T10:52:47.536Z,54240.00
2018-02-27T10:53:47.578Z,58816.00
2018-02-27T10:54:47.636Z,63712.00
2018-02-27T10:55:47.658Z,59776.00
2018-02-27T10:56:47.699Z,53280.00
2018-02-27T10:57:47.742Z,47424.00
2018-02-27T10:58:47.799Z,58752.00
2018-02-27T10:59:47.825Z,59104.00
2018-02-27T11:00:47.883Z,58816.00
2018-02-27T11:01:47.908Z,56416.00
2018-02-27T11:02:47.949Z,47552.00
2018-02-27T11:03:47.992Z,63296.00
2018-02-27T11:04:48.039Z,42560.00
2018-02-27T11:05:48.090Z,57024.00
2018-02-27T11:06:48.115Z,45536.00
2018-02-27T11:07:48.158Z,27456.00
2018-02-27T11:08:48.241Z,27136.00
2018-02-27T11:09:48.239Z,29152.00
2018-02-27T11:10:48.304Z,29344.00
2018-02-27T11:11:48.322Z,29536.00
2018-02-27T11:12:48.361Z,23744.00
2018-02-27T11:13:48.400Z,25664.00
2018-02-27T11:14:48.444Z,28224.00
2018-02-27T11:15:48.499Z,29600.00
2018-02-27T11:16:48.537Z,49120.00
2018-02-27T11:17:48.566Z,54400.00
2018-02-27T11:18:48.604Z,65760.00
2018-02-27T11:19:48.647Z,34272.00
2018-02-27T11:20:48.681Z,85856.00
2018-02-27T11:21:48.738Z,94816.00
2018-02-27T11:22:48.765Z,89248.00
2018-02-27T11:23:48.800Z,34304.00
2018-02-27T11:24:48.839Z,31488.00
2018-02-27T11:25:48.880Z,30784.00
2018-02-27T11:26:48.949Z,27744.00
2018-02-27T11:27:49.758Z,28736.00
2018-02-27T11:28:49.000Z,62848.00
2018-02-27T11:29:49.040Z,49600.00
2018-02-27T11:30:49.079Z,45312.00
2018-02-27T11:31:49.147Z,27424.00
2018-02-27T11:32:49.156Z,24640.00
2018-02-27T11:33:49.211Z,24544.00
2018-02-27T11:34:49.236Z,24896.00
2018-02-27T11:35:49.276Z,25824.00
2018-02-27T11:36:49.334Z,28640.00
2018-02-27T11:37:49.355Z,64768.00
2018-02-27T11:38:49.396Z,71264.00
2018-02-27T11:39:49.447Z,73216.00
2018-02-27T11:40:49.474Z,68800.00
2018-02-27T11:41:49.518Z,40320.00
2018-02-27T11:42:49.575Z,31456.00
2018-02-27T11:43:49.590Z,37248.00
2018-02-27T11:44:49.649Z,64256.00
2018-02-27T11:45:49.667Z,63712.00
2018-02-27T11:46:49.713Z,49056.00
2018-02-27T11:47:49.765Z,60064.00
2018-02-27T11:48:49.786Z,41408.00
2018-02-27T11:49:49.846Z,30080.00
2018-02-27T11:50:49.867Z,25152.00
2018-02-27T11:51:49.908Z,23712.00
2018-02-27T11:52:49.948Z,24768.00
2018-02-27T11:53:49.988Z,26656.00
2018-02-27T11:54:50.043Z,28000.00
2018-02-27T11:55:50.068Z,30144.00
2018-02-27T11:56:50.105Z,64160.00
2018-02-27T11:57:50.146Z,46656.00
2018-02-27T11:58:50.199Z,45664.00
2018-02-27T11:59:50.223Z,67808.00
2018-02-27T12:00:50.268Z,38304.00
2018-02-27T12:01:50.301Z,48832.00
2018-02-27T12:02:50.341Z,69664.00
2018-02-27T12:03:50.413Z,44256.00
2018-02-27T12:04:50.420Z,36608.00
2018-02-27T12:05:50.461Z,37760.00
2018-02-27T12:06:50.508Z,64800.00
2018-02-27T12:07:50.544Z,53536.00
2018-02-27T12:08:50.600Z,59168.00
2018-02-27T12:09:50.619Z,57888.00
2018-02-27T12:10:50.659Z,60384.00
2018-02-27T12:11:50.701Z,65856.00
2018-02-27T12:12:50.741Z,74016.00
2018-02-27T12:13:50.797Z,72992.00
2018-02-27T12:14:50.821Z,35200.00
2018-02-27T12:15:50.882Z,35040.00
2018-02-27T12:16:50.905Z,40224.00
2018-02-27T12:17:50.942Z,34464.00
2018-02-27T12:18:50.983Z,26368.00
2018-02-27T12:19:51.044Z,22848.00
2018-02-27T12:20:51.066Z,22304.00
2018-02-27T12:21:51.119Z,21280.00
2018-02-27T12:22:51.143Z,20992.00
2018-02-27T12:23:51.185Z,23168.00
2018-02-27T12:24:51.221Z,21472.00
2018-02-27T12:25:51.278Z,21024.00
2018-02-27T12:26:51.327Z,20512.00
2018-02-27T12:27:51.347Z,19936.00
2018-02-27T12:28:51.384Z,19488.00
2018-02-27T12:29:51.424Z,19264.00
2018-02-27T12:30:51.463Z,19104.00
2018-02-27T12:31:51.530Z,18912.00